Time;durP1;ratioP1;P1;durP2;ratioP2;P2;SDS_P1;SDS_P2;PMS_P1;PMS_P2;Temp;Humidity;BMP_temperature;BMP_pressure;BME280_temperature;BME280_humidity;BME280_pressure;Samples;Min_cycle;Max_cycle;Signal;HPM_P1;HPM_P2
2022/10/17 00:02:24;;;;;;;33.83;30.23;;;;;;;9.47;100.00;100262.88;6067322;23;20196;-86
2022/10/17 00:04:51;;;;;;;34.20;29.37;;;;;;;9.44;100.00;100263.28;6067829;23;20213;-86
2022/10/17 00:07:17;;;;;;;33.70;29.20;;;;;;;9.47;100.00;100259.41;6066199;23;20260;-86
2022/10/17 00:09:44;;;;;;;35.20;30.97;;;;;;;9.43;100.00;100264.28;6067956;23;20558;-85
2022/10/17 00:12:11;;;;;;;33.23;29.37;;;;;;;9.46;100.00;100266.59;6066579;23;20193;-86
2022/10/17 00:14:37;;;;;;;32.90;28.90;;;;;;;9.38;100.00;100264.06;6043241;23;20208;-85
2022/10/17 00:17:04;;;;;;;32.53;29.03;;;;;;;9.37;100.00;100267.78;6069174;23;20249;-85
2022/10/17 00:19:31;;;;;;;34.17;29.63;;;;;;;9.33;100.00;100271.03;6068402;23;20602;-86
2022/10/17 00:21:58;;;;;;;32.73;29.23;;;;;;;9.29;100.00;100262.56;6068272;23;20219;-85
2022/10/17 00:24:24;;;;;;;35.10;30.13;;;;;;;9.32;100.00;100266.69;6068441;23;20223;-86
2022/10/17 00:26:51;;;;;;;31.80;27.87;;;;;;;9.31;100.00;100268.53;6071188;23;20220;-85
2022/10/17 00:29:18;;;;;;;32.10;27.90;;;;;;;9.25;100.00;100266.63;6073134;23;20219;-85
2022/10/17 00:31:46;;;;;;;31.80;28.30;;;;;;;9.26;100.00;100271.81;6074317;23;20665;-85
2022/10/17 00:34:13;;;;;;;31.60;28.10;;;;;;;9.23;100.00;100274.88;6099980;23;20291;-85
2022/10/17 00:36:39;;;;;;;34.03;29.27;;;;;;;9.21;100.00;100276.06;6100650;23;20215;-84
2022/10/17 00:39:06;;;;;;;32.27;28.67;;;;;;;9.19;100.00;100278.13;6099881;23;20204;-86
2022/10/17 00:41:33;;;;;;;31.23;27.57;;;;;;;9.15;100.00;100271.50;6100820;23;20212;-86
2022/10/17 00:44:24;;;;;;;31.17;27.80;;;;;;;9.16;100.00;100275.84;6074296;23;20208;-86
2022/10/17 00:46:52;;;;;;;33.73;28.73;;;;;;;9.14;100.00;100277.91;6107126;23;20200;-84
2022/10/17 00:49:19;;;;;;;31.53;28.13;;;;;;;9.14;100.00;100277.91;6106806;23;20212;-84
2022/10/17 00:51:50;;;;;;;33.83;28.03;;;;;;;9.04;100.00;100280.91;6058200;23;20215;-85
2022/10/17 00:54:20;;;;;;;31.63;28.13;;;;;;;9.03;100.00;100281.09;6080969;23;20615;-85
2022/10/17 00:56:47;;;;;;;32.77;28.37;;;;;;;8.95;100.00;100270.53;6079707;23;20672;-84
2022/10/17 00:59:15;;;;;;;28.47;25.37;;;;;;;8.98;100.00;100265.63;6057007;23;20216;-85
2022/10/17 01:01:46;;;;;;;29.53;26.33;;;;;;;8.95;100.00;100263.34;6108339;23;20220;-85
2022/10/17 01:04:13;;;;;;;32.23;27.30;;;;;;;8.93;100.00;100251.19;6082385;23;20231;-84
2022/10/17 01:06:39;;;;;;;29.67;26.47;;;;;;;8.92;100.00;100250.38;6082498;23;20208;-85
2022/10/17 01:09:06;;;;;;;30.33;27.03;;;;;;;8.86;100.00;100245.81;6107120;23;20208;-84
2022/10/17 01:12:06;;;;;;;30.90;27.47;;;;;;;8.86;100.00;100253.00;6106362;23;20216;-85
2022/10/17 01:15:03;;;;;;;30.20;26.53;;;;;;;8.92;100.00;100254.88;6084970;23;20235;-83
2022/10/17 01:17:51;;;;;;;28.73;25.73;;;;;;;8.87;100.00;100252.78;6092149;23;20212;-83
2022/10/17 01:20:40;;;;;;;29.80;25.73;;;;;;;8.75;100.00;100257.00;6067378;23;20212;-83
2022/10/17 01:23:39;;;;;;;27.43;24.43;;;;;;;8.75;100.00;100259.69;6093263;23;20247;-83
2022/10/17 01:26:18;;;;;;;30.20;26.77;;;;;;;8.74;100.00;100256.19;6044482;23;20215;-84
2022/10/17 01:29:13;;;;;;;31.03;26.00;;;;;;;8.63;100.00;100246.00;6092452;23;20215;-85
2022/10/17 01:31:51;;;;;;;31.67;26.53;;;;;;;8.69;100.00;100247.09;6117255;23;20267;-84
2022/10/17 01:34:31;;;;;;;30.77;26.93;;;;;;;8.66;100.00;100236.78;6092687;23;20712;-83
2022/10/17 01:37:06;;;;;;;30.27;26.03;;;;;;;8.72;100.00;100252.91;6120457;23;20192;-85
2022/10/17 01:39:53;;;;;;;31.77;25.90;;;;;;;8.76;100.00;100248.81;6120984;23;20212;-84
2022/10/17 01:42:35;;;;;;;32.23;26.93;;;;;;;8.64;100.00;100253.00;6075057;23;20259;-83
2022/10/17 01:45:15;;;;;;;31.07;27.03;;;;;;;8.68;100.00;100250.78;6050060;23;20191;-84
2022/10/17 01:47:43;;;;;;;31.83;26.80;;;;;;;8.68;100.00;100246.25;6071002;23;20208;-84
2022/10/17 01:50:15;;;;;;;29.77;26.50;;;;;;;8.59;100.00;100239.41;6118236;23;20208;-83
2022/10/17 01:52:46;;;;;;;30.20;26.33;;;;;;;8.56;100.00;100242.47;6092945;23;20244;-83
2022/10/17 01:55:27;;;;;;;30.83;26.97;;;;;;;8.55;100.00;100254.16;6117086;23;20216;-83
2022/10/17 01:58:00;;;;;;;29.87;26.60;;;;;;;8.59;100.00;100251.91;6093321;23;20219;-83
2022/10/17 02:00:27;;;;;;;28.93;25.17;;;;;;;8.49;100.00;100235.41;6093620;23;20184;-84
2022/10/17 02:02:58;;;;;;;29.27;25.87;;;;;;;8.40;100.00;100242.72;6093864;23;20212;-83
2022/10/17 02:05:28;;;;;;;29.23;25.60;;;;;;;8.37;100.00;100237.75;6094680;23;20231;-84
2022/10/17 02:07:54;;;;;;;28.63;24.40;;;;;;;8.30;100.00;100243.06;6069802;23;20669;-83
2022/10/17 02:10:47;;;;;;;30.07;25.47;;;;;;;8.28;100.00;100237.03;6091935;23;20258;-83
2022/10/17 02:13:37;;;;;;;29.37;26.27;;;;;;;8.27;100.00;100245.22;6092327;23;20219;-83
2022/10/17 02:16:31;;;;;;;30.33;27.03;;;;;;;8.29;100.00;100243.19;6063583;23;20214;-83
2022/10/17 02:19:08;;;;;;;29.50;26.33;;;;;;;8.27;100.00;100250.56;6069993;23;20216;-84
2022/10/17 02:22:03;;;;;;;29.73;26.63;;;;;;;8.17;100.00;100240.19;6118617;23;20211;-83
2022/10/17 02:24:49;;;;;;;30.20;26.77;;;;;;;8.21;100.00;100256.69;6078757;23;20211;-83
2022/10/17 02:27:30;;;;;;;30.27;25.70;;;;;;;8.18;100.00;100251.69;6068399;23;20212;-83
2022/10/17 02:30:31;;;;;;;30.07;26.87;;;;;;;8.17;100.00;100250.03;6092901;23;20208;-83
2022/10/17 02:33:01;;;;;;;33.67;26.80;;;;;;;8.16;100.00;100249.22;6091831;23;20203;-83
2022/10/17 02:35:30;;;;;;;32.50;27.00;;;;;;;8.18;100.00;100243.69;6070381;23;20212;-84
2022/10/17 02:38:01;;;;;;;29.20;26.00;;;;;;;8.20;100.00;100241.66;6072334;23;20275;-84
2022/10/17 02:40:29;;;;;;;30.57;26.97;;;;;;;8.23;100.00;100243.94;6071619;23;20223;-83
2022/10/17 02:42:58;;;;;;;30.47;26.50;;;;;;;8.13;100.00;100244.25;6071539;23;20192;-83
2022/10/17 02:45:27;;;;;;;30.73;27.37;;;;;;;8.20;100.00;100247.00;6094567;23;20212;-83
2022/10/17 02:48:02;;;;;;;31.13;27.27;;;;;;;8.14;100.00;100237.91;6058418;23;20212;-83
2022/10/17 02:50:44;;;;;;;32.07;27.50;;;;;;;8.11;100.00;100242.81;6044274;23;20211;-84
2022/10/17 02:53:23;;;;;;;29.13;25.90;;;;;;;8.12;100.00;100247.13;6068754;23;20208;-83
2022/10/17 02:55:57;;;;;;;29.33;25.60;;;;;;;8.14;100.00;100250.41;6045518;23;20216;-83
2022/10/17 02:58:32;;;;;;;30.13;26.70;;;;;;;8.18;100.00;100252.53;6091387;23;20239;-83
2022/10/17 03:01:00;;;;;;;28.03;25.03;;;;;;;8.15;100.00;100252.09;6092482;23;20269;-83
2022/10/17 03:03:30;;;;;;;28.57;25.30;;;;;;;8.10;100.00;100263.31;6117300;23;20236;-83
2022/10/17 03:06:00;;;;;;;29.20;25.10;;;;;;;8.04;100.00;100264.06;6069278;23;20224;-83
2022/10/17 03:08:27;;;;;;;27.17;24.27;;;;;;;7.97;100.00;100260.50;6067995;23;20234;-82
2022/10/17 03:10:54;;;;;;;27.00;24.10;;;;;;;7.93;100.00;100260.03;6043925;23;20215;-83
2022/10/17 03:13:21;;;;;;;28.07;24.37;;;;;;;7.92;100.00;100262.91;6090404;23;20208;-84
2022/10/17 03:15:48;;;;;;;27.73;24.63;;;;;;;7.89;100.00;100255.25;6091746;23;20215;-83
2022/10/17 03:18:15;;;;;;;27.40;24.40;;;;;;;7.89;100.00;100265.94;6090940;23;20227;-83
2022/10/17 03:20:43;;;;;;;27.93;24.77;;;;;;;7.93;100.00;100273.38;6069424;23;20283;-83
2022/10/17 03:23:10;;;;;;;28.50;24.63;;;;;;;7.90;100.00;100263.09;6093288;23;20219;-85
2022/10/17 03:25:36;;;;;;;26.87;24.10;;;;;;;7.86;100.00;100271.66;6116842;23;20212;-83
2022/10/17 03:28:04;;;;;;;26.77;23.93;;;;;;;7.84;100.00;100274.50;6090732;23;20212;-83
2022/10/17 03:30:32;;;;;;;26.93;22.70;;;;;;;7.78;100.00;100282.44;6062780;23;20287;-83
2022/10/17 03:33:00;;;;;;;25.77;22.97;;;;;;;7.75;100.00;100280.94;6016558;23;20204;-83
2022/10/17 03:35:29;;;;;;;25.07;22.27;;;;;;;7.70;100.00;100280.66;6063786;23;20264;-84
2022/10/17 03:37:57;;;;;;;24.40;20.67;;;;;;;7.71;100.00;100289.50;6089947;23;20276;-83
2022/10/17 03:40:29;;;;;;;23.40;20.90;;;;;;;7.77;100.00;100299.44;6112258;23;20209;-83
2022/10/17 03:42:57;;;;;;;21.57;19.37;;;;;;;7.64;100.00;100285.94;6088413;23;20212;-83
2022/10/17 03:45:23;;;;;;;22.90;20.60;;;;;;;7.64;100.00;100302.78;6088181;23;20215;-84
2022/10/17 03:47:51;;;;;;;22.20;19.90;;;;;;;7.57;100.00;100301.00;6087170;23;20226;-83
2022/10/17 03:50:18;;;;;;;23.20;20.80;;;;;;;7.52;100.00;100299.72;6085230;23;20197;-82
2022/10/17 03:52:48;;;;;;;23.13;20.73;;;;;;;7.58;100.00;100314.16;6085889;23;20213;-83
2022/10/17 03:55:15;;;;;;;25.33;22.67;;;;;;;7.47;100.00;100304.78;6084831;23;20240;-83
2022/10/17 03:57:43;;;;;;;24.63;22.00;;;;;;;7.45;100.00;100314.81;6084210;23;20213;-83
2022/10/17 04:00:12;;;;;;;24.23;21.63;;;;;;;7.38;100.00;100307.69;6061500;23;20219;-82
2022/10/17 04:02:50;;;;;;;24.47;21.90;;;;;;;7.37;100.00;100308.72;6063344;23;20241;-83
2022/10/17 04:05:18;;;;;;;25.60;22.80;;;;;;;7.38;100.00;100308.53;6083370;23;20236;-84
2022/10/17 04:07:46;;;;;;;25.73;22.47;;;;;;;7.39;100.00;100318.19;6060825;23;20208;-83
2022/10/17 04:10:14;;;;;;;25.27;22.50;;;;;;;7.34;100.00;100306.41;6059365;23;20204;-83
2022/10/17 04:12:41;;;;;;;24.50;21.90;;;;;;;7.34;100.00;100306.41;6080870;23;20208;-83
2022/10/17 04:15:09;;;;;;;25.13;22.13;;;;;;;7.39;100.00;100314.69;6082667;23;20213;-83
2022/10/17 04:17:36;;;;;;;25.23;22.37;;;;;;;7.36;100.00;100309.75;6085116;23;20219;-84
2022/10/17 04:20:05;;;;;;;25.90;23.00;;;;;;;7.36;100.00;100315.91;6039431;23;20203;-82
2022/10/17 04:22:33;;;;;;;25.33;22.63;;;;;;;7.41;100.00;100318.84;6086818;23;20224;-83
2022/10/17 04:24:59;;;;;;;26.60;23.80;;;;;;;7.30;100.00;100313.13;6061316;23;20221;-83
2022/10/17 04:27:32;;;;;;;26.63;23.77;;;;;;;7.27;100.00;100314.34;6082987;23;20205;-80
2022/10/17 04:29:59;;;;;;;26.57;23.67;;;;;;;7.29;100.00;100325.63;6093231;23;20654;-80
2022/10/17 04:32:25;;;;;;;25.60;22.90;;;;;;;7.27;100.00;100324.16;6110063;23;20255;-80
2022/10/17 04:34:57;;;;;;;29.60;24.97;;;;;;;7.29;100.00;100330.13;6063510;23;20679;-80
2022/10/17 04:37:25;;;;;;;28.23;24.90;;;;;;;7.26;100.00;100333.16;6063058;23;20278;-80
2022/10/17 04:39:53;;;;;;;26.30;23.40;;;;;;;7.24;100.00;100333.31;6085759;23;20208;-81
2022/10/17 04:42:20;;;;;;;24.90;22.33;;;;;;;7.22;100.00;100331.88;6086600;23;20208;-81
2022/10/17 04:44:48;;;;;;;24.73;22.07;;;;;;;7.28;100.00;100339.94;6086771;23;20236;-80
2022/10/17 04:47:16;;;;;;;24.40;21.83;;;;;;;7.27;100.00;100332.16;6085646;23;20208;-80
2022/10/17 04:49:43;;;;;;;24.80;22.20;;;;;;;7.26;100.00;100338.50;6085733;23;20570;-81
2022/10/17 04:52:11;;;;;;;27.23;24.30;;;;;;;7.36;100.00;100341.72;6083705;23;20218;-79
2022/10/17 04:54:56;;;;;;;25.33;22.47;;;;;;;7.20;100.00;100337.38;6084349;23;20552;-80
2022/10/17 04:57:23;;;;;;;24.23;21.77;;;;;;;7.18;100.00;100339.41;6059987;23;20212;-81
2022/10/17 05:00:00;;;;;;;23.80;21.40;;;;;;;7.22;100.00;100347.84;6084651;23;20209;-79
2022/10/17 05:02:50;;;;;;;23.90;21.40;;;;;;;7.18;100.00;100338.56;6085534;23;20589;-80
2022/10/17 05:05:18;;;;;;;23.23;20.83;;;;;;;7.16;100.00;100348.56;6084332;23;20212;-81
2022/10/17 05:07:48;;;;;;;23.63;21.20;;;;;;;7.12;100.00;100347.28;6109665;23;20266;-80
2022/10/17 05:10:19;;;;;;;24.87;22.13;;;;;;;7.19;100.00;100349.03;6107794;23;20207;-81
2022/10/17 05:12:48;;;;;;;24.53;21.93;;;;;;;7.21;100.00;100352.34;6083817;23;20222;-81
2022/10/17 05:15:17;;;;;;;24.50;21.83;;;;;;;7.19;100.00;100367.69;6060396;23;20212;-80
2022/10/17 05:17:44;;;;;;;23.70;21.30;;;;;;;7.19;100.00;100369.53;6037218;23;20535;-81
2022/10/17 05:20:11;;;;;;;23.83;20.87;;;;;;;7.23;100.00;100374.31;6061413;23;20263;-80
2022/10/17 05:22:39;;;;;;;24.70;22.10;;;;;;;7.27;100.00;100380.13;6062326;23;20206;-81
2022/10/17 05:25:08;;;;;;;26.37;23.53;;;;;;;7.23;100.00;100376.19;6084412;23;20282;-81
2022/10/17 05:27:36;;;;;;;23.33;20.90;;;;;;;7.26;100.00;100389.13;6084498;23;20246;-80
2022/10/17 05:30:04;;;;;;;22.00;19.80;;;;;;;7.30;100.00;100379.75;6055895;23;20213;-80
2022/10/17 06:43:42;;;;;;;25.33;22.93;;;;;;;9.83;100.00;100460.72;6056401;23;20244;-81
2022/10/17 06:46:28;;;;;;;26.27;23.57;;;;;;;9.97;100.00;100470.50;6047771;23;20216;-81
2022/10/17 06:49:03;;;;;;;25.07;22.67;;;;;;;10.08;100.00;100472.59;6042421;23;20287;-82
2022/10/17 06:51:41;;;;;;;27.00;24.23;;;;;;;10.18;100.00;100474.97;6041813;23;20223;-82
2022/10/17 06:54:10;;;;;;;36.43;32.53;;;;;;;10.32;100.00;100484.75;6039953;23;20213;-82
2022/10/17 06:56:55;;;;;;;41.07;35.60;;;;;;;10.47;100.00;100493.50;6064903;23;20223;-82
2022/10/17 06:59:28;;;;;;;24.43;22.13;;;;;;;10.59;100.00;100493.78;6064419;23;20233;-81
2022/10/17 07:02:08;;;;;;;24.40;22.23;;;;;;;10.75;100.00;100501.47;6038346;23;20232;-81
2022/10/17 07:04:36;;;;;;;24.50;22.20;;;;;;;10.84;100.00;100500.25;6039784;23;20267;-82
2022/10/17 07:07:03;;;;;;;23.03;21.03;;;;;;;10.93;100.00;100507.09;6039627;23;20212;-82
2022/10/17 07:09:32;;;;;;;25.90;23.50;;;;;;;11.06;100.00;100509.00;6039629;23;20236;-82
2022/10/17 07:11:59;;;;;;;24.73;22.47;;;;;;;11.13;100.00;100501.81;6064895;23;20304;-82
2022/10/17 07:14:30;;;;;;;25.50;23.07;;;;;;;11.24;100.00;100503.91;6039270;23;20208;-81
2022/10/17 07:16:58;;;;;;;26.00;23.50;;;;;;;11.40;100.00;100511.56;6039308;23;20665;-81
2022/10/17 07:19:27;;;;;;;26.10;23.60;;;;;;;11.47;100.00;100503.53;6064547;23;20700;-82
2022/10/17 07:21:53;;;;;;;28.30;25.63;;;;;;;11.59;100.00;100514.47;6039244;23;20217;-82
2022/10/17 07:24:20;;;;;;;28.57;25.70;;;;;;;11.66;100.00;100508.09;6039080;23;20327;-86
2022/10/17 07:26:55;;;;;;;28.40;25.57;;;;;;;11.76;100.00;100510.38;6018531;23;20212;-86
2022/10/17 07:29:22;;;;;;;29.17;26.37;;;;;;;11.87;100.00;100513.31;6040771;23;20248;-87
2022/10/17 07:32:07;;;;;;;29.10;26.17;;;;;;;12.02;100.00;100506.91;6043856;23;20272;-87
2022/10/17 07:34:35;;;;;;;31.63;28.37;;;;;;;12.13;100.00;100509.75;6016678;23;20232;-88
2022/10/17 07:37:02;;;;;;;31.43;28.33;;;;;;;12.21;100.00;100508.75;6039943;23;20217;-88
2022/10/17 07:39:29;;;;;;;30.77;27.67;;;;;;;12.31;100.00;100503.78;6065774;23;20697;-88
2022/10/17 07:41:57;;;;;;;31.77;28.47;;;;;;;12.49;100.00;100505.78;6017250;23;20212;-88
2022/10/17 07:44:24;;;;;;;31.67;28.47;;;;;;;12.65;100.00;100513.38;6039584;23;20209;-88
2022/10/17 07:46:51;;;;;;;31.80;28.50;;;;;;;12.68;100.00;100502.22;6040254;23;20229;-89
2022/10/17 07:49:18;;;;;;;30.83;27.47;;;;;;;12.80;100.00;100516.63;6040856;23;20618;-86
2022/10/17 07:51:46;;;;;;;34.27;30.63;;;;;;;12.95;100.00;100511.84;6040276;23;20694;-88
2022/10/17 07:54:13;;;;;;;33.17;29.77;;;;;;;13.05;100.00;100500.63;6040561;23;20214;-89
2022/10/17 07:56:40;;;;;;;33.90;30.40;;;;;;;13.14;100.00;100502.03;6067419;23;20722;-88
2022/10/17 07:59:06;;;;;;;33.67;30.07;;;;;;;13.20;100.00;100499.31;6067994;23;20217;-86
2022/10/17 08:01:35;;;;;;;32.97;29.03;;;;;;;13.38;100.00;100505.84;6067867;23;20207;-86
2022/10/17 08:04:02;;;;;;;33.43;29.93;;;;;;;13.47;100.00;100509.94;6042520;23;20273;-88
2022/10/17 08:06:29;;;;;;;33.60;30.20;;;;;;;13.58;100.00;100509.22;6018842;23;20291;-87
2022/10/17 08:08:56;;;;;;;33.97;30.33;;;;;;;13.67;100.00;100510.59;6067961;23;20220;-85
2022/10/17 08:11:24;;;;;;;34.13;30.53;;;;;;;13.77;100.00;100508.25;6042617;23;20291;-88
2022/10/17 08:13:50;;;;;;;33.97;30.37;;;;;;;13.87;100.00;100511.28;6042749;23;20225;-88
2022/10/17 08:16:17;;;;;;;33.70;30.00;;;;;;;13.99;100.00;100506.84;6042293;23;20290;-88
2022/10/17 08:18:44;;;;;;;34.63;30.93;;;;;;;13.98;100.00;100507.88;6019230;23;20219;-88
2022/10/17 08:21:12;;;;;;;32.50;28.97;;;;;;;14.02;100.00;100506.41;6067890;23;20218;-88
2022/10/17 08:23:39;;;;;;;35.17;31.47;;;;;;;14.20;100.00;100504.78;6042558;23;20247;-89
2022/10/17 08:26:09;;;;;;;33.27;29.87;;;;;;;14.30;100.00;100507.78;6017749;23;20878;-87
2022/10/17 08:28:39;;;;;;;35.23;31.43;;;;;;;14.42;100.00;100517.63;6019069;23;20218;-87
2022/10/17 08:31:08;;;;;;;34.53;30.93;;;;;;;14.57;100.00;100506.50;6042354;23;20243;-88
2022/10/17 08:33:34;;;;;;;34.03;30.30;;;;;;;14.69;100.00;100510.09;6042858;23;20220;-88
2022/10/17 08:36:01;;;;;;;33.93;30.40;;;;;;;14.76;100.00;100510.84;6018581;23;20212;-87
2022/10/17 08:38:29;;;;;;;34.03;29.90;;;;;;;14.83;100.00;100508.91;6066501;23;20673;-87
2022/10/17 08:41:04;;;;;;;32.23;28.87;;;;;;;14.90;100.00;100512.34;6044071;23;20215;-87
2022/10/17 08:43:39;;;;;;;34.20;30.47;;;;;;;15.08;100.00;100511.47;6067648;23;20220;-87
2022/10/17 08:46:07;;;;;;;33.13;29.73;;;;;;;15.23;100.00;100517.31;6041983;23;20244;-87
2022/10/17 08:48:40;;;;;;;32.87;29.43;;;;;;;15.38;100.00;100516.91;6042590;23;20208;-88
2022/10/17 08:51:18;;;;;;;33.80;30.20;;;;;;;15.60;100.00;100517.22;6066400;23;20212;-88
2022/10/17 08:53:51;;;;;;;33.13;29.73;;;;;;;15.71;100.00;100511.03;6019185;23;20223;-86
2022/10/17 08:56:23;;;;;;;35.80;31.93;;;;;;;15.81;100.00;100516.69;6018021;23;20231;-88
2022/10/17 08:59:12;;;;;;;33.17;29.77;;;;;;;15.79;100.00;100508.00;6046168;23;20243;-88
2022/10/17 09:01:45;;;;;;;33.93;30.37;;;;;;;16.15;100.00;100505.09;6042383;23;20688;-86
2022/10/17 09:04:33;;;;;;;34.20;30.70;;;;;;;16.13;100.00;100509.09;6041745;23;20213;-88
2022/10/17 09:07:09;;;;;;;33.83;30.23;;;;;;;16.18;100.00;100511.91;6041816;23;20275;-86
2022/10/17 09:09:43;;;;;;;32.70;29.20;;;;;;;16.33;100.00;100504.13;6042498;23;20216;-87
2022/10/17 09:12:17;;;;;;;32.97;29.60;;;;;;;16.46;100.00;100511.19;6041778;23;20280;-88
2022/10/17 09:14:56;;;;;;;33.03;29.57;;;;;;;16.55;100.00;100507.06;6042980;23;20252;-88
2022/10/17 09:17:51;;;;;;;32.93;29.57;;;;;;;16.65;100.00;100502.75;6042135;23;20239;-88
2022/10/17 09:20:30;;;;;;;33.33;30.03;;;;;;;16.84;100.00;100508.00;6018179;23;20746;-86
2022/10/17 09:23:00;;;;;;;32.40;29.17;;;;;;;16.95;100.00;100496.28;6042456;23;20677;-85
2022/10/17 09:25:27;;;;;;;35.17;31.40;;;;;;;17.12;100.00;100497.19;6065980;23;20208;-85
2022/10/17 09:27:57;;;;;;;35.33;31.40;;;;;;;17.40;100.00;100499.91;6042420;23;20205;-85
2022/10/17 09:30:35;;;;;;;34.30;30.57;;;;;;;17.79;100.00;100500.88;6041070;23;20212;-85
2022/10/17 09:33:29;;;;;;;33.97;30.43;;;;;;;18.13;100.00;100490.84;6045066;23;20217;-86
2022/10/17 09:36:20;;;;;;;33.17;29.67;;;;;;;18.50;100.00;100491.09;6026148;23;20208;-86
2022/10/17 09:38:50;;;;;;;32.73;29.37;;;;;;;18.82;100.00;100491.28;6042337;23;20245;-85
2022/10/17 09:41:26;;;;;;;31.90;28.70;;;;;;;19.13;100.00;100495.19;6042014;23;20209;-85
2022/10/17 09:44:19;;;;;;;31.40;28.07;;;;;;;19.35;100.00;100494.06;6025705;23;20666;-85
2022/10/17 09:46:58;;;;;;;31.33;28.07;;;;;;;19.55;100.00;100495.38;6067162;23;20215;-86
2022/10/17 09:49:33;;;;;;;29.87;26.87;;;;;;;19.59;100.00;100489.19;6018729;23;20216;-87
2022/10/17 09:52:02;;;;;;;28.83;25.93;;;;;;;19.89;100.00;100491.31;6065856;23;20222;-86
2022/10/17 09:54:38;;;;;;;29.83;26.77;;;;;;;19.98;100.00;100483.50;6017460;23;20225;-87
2022/10/17 09:57:07;;;;;;;28.83;25.80;;;;;;;20.01;100.00;100497.41;6041740;23;20284;-85
2022/10/17 09:59:45;;;;;;;29.50;26.40;;;;;;;20.11;100.00;100491.22;6042070;23;20216;-86
2022/10/17 10:02:12;;;;;;;29.77;26.67;;;;;;;20.22;100.00;100491.03;6065074;23;20298;-85
2022/10/17 10:05:06;;;;;;;28.67;25.87;;;;;;;20.34;100.00;100490.88;6041706;23;20206;-85
2022/10/17 10:07:36;;;;;;;28.00;25.20;;;;;;;20.61;100.00;100488.03;6018243;23;20216;-86
2022/10/17 10:10:24;;;;;;;29.20;26.17;;;;;;;20.67;100.00;100482.31;6017151;23;20581;-86
2022/10/17 10:13:16;;;;;;;27.00;24.33;;;;;;;20.88;100.00;100487.84;6066590;23;20225;-84
2022/10/17 10:15:48;;;;;;;26.17;23.67;;;;;;;21.14;99.49;100488.81;6018217;23;20282;-84
2022/10/17 10:18:23;;;;;;;25.83;23.10;;;;;;;21.32;94.63;100486.38;6016413;23;20279;-84
2022/10/17 10:21:10;;;;;;;26.43;23.63;;;;;;;21.47;89.65;100483.69;6067222;23;20243;-83
2022/10/17 10:23:39;;;;;;;25.53;23.03;;;;;;;21.64;89.31;100478.00;6017366;23;20236;-84
2022/10/17 10:26:20;;;;;;;25.43;22.77;;;;;;;21.71;87.43;100478.53;6066914;23;20271;-86
2022/10/17 10:29:00;;;;;;;24.23;21.90;;;;;;;21.79;84.68;100485.34;6043075;23;20276;-86
2022/10/17 10:31:38;;;;;;;24.30;22.10;;;;;;;21.83;83.07;100475.53;6020093;23;20238;-87
2022/10/17 10:34:19;;;;;;;24.53;21.90;;;;;;;21.91;83.67;100484.00;6018957;23;20213;-87
2022/10/17 10:36:50;;;;;;;24.17;21.80;;;;;;;21.94;83.04;100478.00;6019538;23;20284;-86
2022/10/17 10:39:41;;;;;;;23.03;20.83;;;;;;;22.12;80.49;100465.69;6043157;23;20217;-87
2022/10/17 10:42:30;;;;;;;23.30;21.10;;;;;;;22.15;79.78;100456.16;6018949;23;20240;-87
2022/10/17 10:45:20;;;;;;;23.67;21.33;;;;;;;22.25;79.10;100467.06;6019303;23;20215;-86
2022/10/17 10:48:27;;;;;;;22.73;20.33;;;;;;;22.26;76.66;100455.03;6027009;23;20212;-87
2022/10/17 10:51:16;;;;;;;23.43;21.00;;;;;;;22.30;75.85;100456.13;6019528;23;20216;-87
2022/10/17 10:53:49;;;;;;;23.53;21.27;;;;;;;22.42;76.17;100451.19;6019841;23;20213;-88
2022/10/17 10:56:29;;;;;;;22.98;20.88;;;;;;;22.45;75.39;100445.16;6042167;23;20215;-87
2022/10/17 10:59:07;;;;;;;22.48;20.25;;;;;;;22.68;73.49;100458.16;6019259;23;20273;-86
2022/10/17 11:01:50;;;;;;;22.52;20.42;;;;;;;22.78;74.45;100452.69;6042925;23;20227;-87
2022/10/17 11:04:43;;;;;;;21.30;19.30;;;;;;;22.83;72.44;100451.84;6042378;23;20214;-86
2022/10/17 11:07:16;;;;;;;21.83;19.63;;;;;;;22.93;71.94;100446.34;6019094;23;20591;-86
2022/10/17 11:10:16;;;;;;;21.50;19.50;;;;;;;23.18;71.41;100448.94;6019154;23;20215;-86
2022/10/17 11:12:48;;;;;;;21.88;19.27;;;;;;;23.33;69.90;100456.22;6018899;23;20215;-89
2022/10/17 11:15:21;;;;;;;22.23;20.02;;;;;;;23.42;70.89;100451.78;6019224;23;20212;-87
2022/10/17 11:18:12;;;;;;;21.25;19.02;;;;;;;23.56;68.95;100454.72;6042355;23;20286;-85
2022/10/17 11:21:14;;;;;;;20.17;18.17;;;;;;;23.67;67.46;100440.69;6042405;23;20249;-86
2022/10/17 11:23:45;;;;;;;19.88;17.98;;;;;;;23.75;66.40;100444.69;6013344;23;20215;-85
2022/10/17 11:26:25;;;;;;;20.20;18.30;;;;;;;23.79;66.30;100444.97;6018158;23;20277;-86
2022/10/17 11:28:56;;;;;;;20.83;18.77;;;;;;;23.88;66.08;100440.50;6043169;23;20228;-86
2022/10/17 11:31:30;;;;;;;20.23;17.77;;;;;;;23.92;65.48;100439.63;6042399;23;20292;-86
2022/10/17 11:34:01;;;;;;;20.08;18.08;;;;;;;23.89;65.00;100437.47;6018579;23;20272;-87
2022/10/17 11:36:31;;;;;;;20.40;18.55;;;;;;;24.03;64.38;100437.59;6042283;23;20227;-86
2022/10/17 11:39:02;;;;;;;20.63;18.60;;;;;;;24.11;64.05;100431.53;6042447;23;20694;-85
2022/10/17 11:41:56;;;;;;;19.00;17.30;;;;;;;24.24;62.90;100424.56;6018844;23;20213;-85
2022/10/17 11:44:35;;;;;;;20.10;18.17;;;;;;;24.27;62.15;100430.25;6014136;23;20236;-86
2022/10/17 11:47:45;;;;;;;19.38;17.63;;;;;;;24.20;61.14;100427.06;6013998;23;20210;-86
2022/10/17 11:50:23;;;;;;;18.35;16.65;;;;;;;24.15;61.36;100424.34;6029698;23;20256;-85
2022/10/17 11:53:21;;;;;;;17.98;16.33;;;;;;;24.29;61.50;100424.50;6036907;23;20230;-87
2022/10/17 11:55:49;;;;;;;18.77;16.95;;;;;;;24.24;61.41;100417.16;5989039;23;20211;-82
2022/10/17 11:58:21;;;;;;;19.73;17.77;;;;;;;24.19;60.20;100421.88;6010476;23;20221;-84
2022/10/17 12:00:57;;;;;;;18.40;16.60;;;;;;;24.19;59.97;100417.22;6037089;23;20243;-85
2022/10/17 12:03:53;;;;;;;18.95;17.25;;;;;;;24.26;59.90;100420.44;6037360;23;20217;-83
2022/10/17 12:06:29;;;;;;;18.70;17.10;;;;;;;24.28;59.79;100399.03;6036519;23;20272;-83
2022/10/17 12:09:10;;;;;;;18.42;16.63;;;;;;;24.31;59.45;100403.13;6036955;23;20217;-83
2022/10/17 12:11:54;;;;;;;18.63;16.75;;;;;;;24.13;59.09;100402.72;6037559;23;20213;-87
2022/10/17 12:14:32;;;;;;;17.42;15.90;;;;;;;24.18;58.95;100395.59;6012030;23;21125;-82
2022/10/17 12:17:00;;;;;;;18.55;16.77;;;;;;;24.29;58.43;100397.13;6035758;23;20298;-84
2022/10/17 12:19:31;;;;;;;16.67;15.23;;;;;;;24.25;58.57;100387.88;6012982;23;20217;-86
2022/10/17 12:22:20;;;;;;;17.15;15.65;;;;;;;24.24;57.26;100398.00;6013145;23;20240;-85
2022/10/17 12:25:03;;;;;;;17.27;15.60;;;;;;;24.16;57.78;100389.59;6035305;23;20266;-85
2022/10/17 12:27:40;;;;;;;17.30;15.40;;;;;;;24.19;57.60;100398.06;6012119;23;20284;-84
2022/10/17 12:30:23;;;;;;;17.83;16.15;;;;;;;24.06;57.54;100385.84;6035181;23;20212;-83
2022/10/17 12:32:58;;;;;;;17.60;16.05;;;;;;;24.01;57.68;100394.13;6012320;23;20213;-85
2022/10/17 12:35:34;;;;;;;17.30;15.70;;;;;;;24.06;57.85;100396.81;6036199;23;20982;-86
2022/10/17 12:38:13;;;;;;;16.42;14.82;;;;;;;23.92;57.60;100389.56;6035858;23;20206;-81
2022/10/17 12:40:40;;;;;;;17.30;15.80;;;;;;;23.96;58.17;100385.13;6013607;23;20633;-85
2022/10/17 12:43:14;;;;;;;16.63;15.13;;;;;;;24.08;58.04;100388.28;6040609;23;20313;-84
2022/10/17 12:45:48;;;;;;;17.48;15.90;;;;;;;24.07;57.17;100378.47;6042014;23;20208;-85
2022/10/17 12:48:43;;;;;;;18.20;16.30;;;;;;;24.12;57.49;100381.94;6041189;23;20305;-84
2022/10/17 12:51:21;;;;;;;17.30;15.73;;;;;;;24.18;56.66;100382.72;6015245;23;20215;-85